createdAt,value
2023-05-10T00:00:11.126Z,151.98
2023-05-10T00:01:11.128Z,153.19
2023-05-10T00:02:11.263Z,152.47
2023-05-10T00:03:11.323Z,152.98
2023-05-10T00:04:11.247Z,152.42
2023-05-10T00:05:11.216Z,152.33
2023-05-10T00:06:11.240Z,152.72
2023-05-10T00:07:11.351Z,150.98
2023-05-10T00:08:11.390Z,154.45
2023-05-10T00:09:11.351Z,153.83
2023-05-10T00:10:11.374Z,153.93
2023-05-10T00:11:11.418Z,156.27
2023-05-10T00:12:11.478Z,154.75
2023-05-10T00:13:11.513Z,154.04
2023-05-10T00:14:11.481Z,154.03
2023-05-10T00:15:11.522Z,155.93
2023-05-10T00:16:11.590Z,155.75
2023-05-10T00:17:11.653Z,155.18
2023-05-10T00:18:11.680Z,157.74
2023-05-10T00:19:11.672Z,157.17
2023-05-10T00:20:11.719Z,154.72
2023-05-10T00:21:11.777Z,155.61
2023-05-10T00:22:11.761Z,156.75
2023-05-10T00:23:11.793Z,157.07
2023-05-10T00:24:12.180Z,154.88
2023-05-10T00:25:11.857Z,156.25
2023-05-10T00:26:11.871Z,155.87
2023-05-10T00:27:11.926Z,157.52
2023-05-10T00:28:11.922Z,156.05
2023-05-10T00:29:12.034Z,155.34
2023-05-10T00:30:11.974Z,155.52
2023-05-10T00:31:12.042Z,156.81
2023-05-10T00:32:12.137Z,157.50
2023-05-10T00:33:12.100Z,158.44
2023-05-10T00:34:12.132Z,155.50
2023-05-10T00:35:12.203Z,157.06
2023-05-10T00:36:12.278Z,157.71
2023-05-10T00:37:12.310Z,158.01
2023-05-10T00:38:12.308Z,157.08
2023-05-10T00:39:12.284Z,156.47
2023-05-10T00:40:12.336Z,156.32
2023-05-10T00:41:12.333Z,156.58
2023-05-10T00:42:12.397Z,155.89
2023-05-10T00:43:12.421Z,158.14
2023-05-10T00:44:12.448Z,157.66
2023-05-10T00:45:12.460Z,156.19
2023-05-10T00:46:12.542Z,154.43
2023-05-10T00:47:12.536Z,156.47
2023-05-10T00:48:12.550Z,157.72
2023-05-10T00:49:12.594Z,156.92
2023-05-10T00:50:12.656Z,158.56
2023-05-10T00:51:12.627Z,157.69
2023-05-10T00:52:12.720Z,159.19
2023-05-10T00:53:12.727Z,159.07
2023-05-10T00:54:12.786Z,158.07
2023-05-10T00:55:12.756Z,158.58
2023-05-10T00:56:12.822Z,158.09
2023-05-10T00:57:12.840Z,157.12
2023-05-10T00:58:12.929Z,158.52
2023-05-10T00:59:12.924Z,158.88
2023-05-10T01:00:13.002Z,157.91
2023-05-10T01:01:13.013Z,158.54
2023-05-10T01:02:13.027Z,158.59
2023-05-10T01:03:13.170Z,159.69
2023-05-10T01:04:13.072Z,157.54
2023-05-10T01:05:13.217Z,159.17
2023-05-10T01:06:13.191Z,159.41
2023-05-10T01:07:13.181Z,158.41
2023-05-10T01:08:13.297Z,159.68
2023-05-10T01:09:13.338Z,160.15
2023-05-10T01:10:13.457Z,158.81
2023-05-10T01:11:13.318Z,160.71
2023-05-10T01:12:13.397Z,160.24
2023-05-10T01:13:13.481Z,159.93
2023-05-10T01:14:13.399Z,158.55
2023-05-10T01:15:13.486Z,160.86
2023-05-10T01:16:13.549Z,160.35
2023-05-10T01:17:13.566Z,161.28
2023-05-10T01:18:13.566Z,162.03
2023-05-10T01:19:13.607Z,159.15
2023-05-10T01:20:13.857Z,161.12
2023-05-10T01:21:13.701Z,161.83
2023-05-10T01:22:13.737Z,160.36
2023-05-10T01:23:13.779Z,162.44
2023-05-10T01:24:13.871Z,161.56
2023-05-10T01:25:13.840Z,160.44
2023-05-10T01:26:13.868Z,160.66
2023-05-10T01:27:13.944Z,162.47
2023-05-10T01:28:13.948Z,161.68
2023-05-10T01:29:14.071Z,161.79
2023-05-10T01:30:16.170Z,161.66
2023-05-10T01:31:14.206Z,161.98
2023-05-10T01:32:14.172Z,162.20
2023-05-10T01:33:14.204Z,164.08
2023-05-10T01:34:14.255Z,163.16
2023-05-10T01:35:14.305Z,162.67
2023-05-10T01:36:14.310Z,164.18
2023-05-10T01:37:14.349Z,161.17
2023-05-10T01:38:14.444Z,161.24
2023-05-10T01:39:14.427Z,162.53
2023-05-10T01:40:14.740Z,163.56
2023-05-10T01:41:14.538Z,163.27
2023-05-10T01:42:14.575Z,161.95
2023-05-10T01:43:14.634Z,162.56
2023-05-10T01:44:14.656Z,163.50
2023-05-10T01:45:14.675Z,164.00
2023-05-10T01:46:14.715Z,163.54
2023-05-10T01:47:14.790Z,162.93
2023-05-10T01:48:14.825Z,162.35
2023-05-10T01:49:14.832Z,163.03
2023-05-10T01:50:15.044Z,163.72
2023-05-10T01:51:14.979Z,163.24
2023-05-10T01:52:14.995Z,163.09
2023-05-10T01:53:15.027Z,164.78
2023-05-10T01:54:15.040Z,164.67
2023-05-10T01:55:15.099Z,164.55
2023-05-10T01:56:15.154Z,162.53
2023-05-10T01:57:15.204Z,161.73
2023-05-10T01:58:15.251Z,163.17
2023-05-10T01:59:15.240Z,163.60
2023-05-10T02:00:15.589Z,164.39
2023-05-10T02:01:15.553Z,161.88
2023-05-10T02:02:15.408Z,164.52
2023-05-10T02:03:15.502Z,163.01
2023-05-10T02:04:15.521Z,164.45
2023-05-10T02:05:15.567Z,166.15
2023-05-10T02:06:15.574Z,164.27
2023-05-10T02:07:15.643Z,165.53
2023-05-10T02:08:15.676Z,164.13
2023-05-10T02:09:15.671Z,164.81
2023-05-10T02:10:15.944Z,166.11
2023-05-10T02:11:15.813Z,163.84
2023-05-10T02:12:16.640Z,166.05
2023-05-10T02:13:15.918Z,166.00
2023-05-10T02:14:15.936Z,164.62
2023-05-10T02:15:16.076Z,165.85
2023-05-10T02:16:16.104Z,165.69
2023-05-10T02:17:16.058Z,165.20
2023-05-10T02:18:16.139Z,164.58
2023-05-10T02:19:16.134Z,165.63
2023-05-10T02:20:16.551Z,163.34
2023-05-10T02:21:16.242Z,162.89
2023-05-10T02:22:16.253Z,164.20
2023-05-10T02:23:16.381Z,166.43
2023-05-10T02:24:16.373Z,164.97
2023-05-10T02:25:16.413Z,165.58
2023-05-10T02:26:16.498Z,164.08
2023-05-10T02:27:16.578Z,163.60
2023-05-10T02:28:16.623Z,165.35
2023-05-10T02:29:24.165Z,166.45
2023-05-10T02:30:16.751Z,166.74
2023-05-10T02:31:16.623Z,167.22
2023-05-10T02:32:16.663Z,167.21
2023-05-10T02:33:16.655Z,167.54
2023-05-10T02:34:16.649Z,168.19
2023-05-10T02:35:16.581Z,168.85
2023-05-10T02:36:16.576Z,167.99
2023-05-10T02:37:16.536Z,167.36
2023-05-10T02:38:16.574Z,168.04
2023-05-10T02:39:16.558Z,166.19
2023-05-10T02:40:16.857Z,167.10
2023-05-10T02:41:16.515Z,167.77
2023-05-10T02:42:16.524Z,166.11
2023-05-10T02:43:16.546Z,165.66
2023-05-10T02:44:16.550Z,166.76
2023-05-10T02:45:16.642Z,167.44
2023-05-10T02:46:16.644Z,167.41
2023-05-10T02:47:16.645Z,166.97
2023-05-10T02:48:16.677Z,166.21
2023-05-10T02:49:16.676Z,169.10
2023-05-10T02:50:17.099Z,168.48
2023-05-10T02:51:16.843Z,167.83
2023-05-10T02:52:16.803Z,168.28
2023-05-10T02:53:16.883Z,168.14
2023-05-10T02:54:16.889Z,167.32
2023-05-10T02:55:16.928Z,168.34
2023-05-10T02:56:16.934Z,168.03
2023-05-10T02:57:17.015Z,169.33
2023-05-10T02:58:17.045Z,166.97
2023-05-10T02:59:17.348Z,168.49
2023-05-10T03:00:17.354Z,167.37
2023-05-10T03:01:17.233Z,167.16
2023-05-10T03:02:17.193Z,168.10
2023-05-10T03:03:17.239Z,168.32
2023-05-10T03:04:17.387Z,168.56
2023-05-10T03:05:17.324Z,168.70
2023-05-10T03:06:17.385Z,166.77
2023-05-10T03:07:17.979Z,167.58
2023-05-10T03:08:17.462Z,169.39
2023-05-10T03:09:17.507Z,170.13
2023-05-10T03:10:17.756Z,167.29
2023-05-10T03:11:17.556Z,169.50
2023-05-10T03:12:17.629Z,169.00
2023-05-10T03:13:17.728Z,168.17
2023-05-10T03:14:17.673Z,167.86
2023-05-10T03:15:17.710Z,168.86
2023-05-10T03:16:17.839Z,167.16
2023-05-10T03:17:17.877Z,167.33
2023-05-10T03:18:17.903Z,168.52
2023-05-10T03:19:17.876Z,168.93
2023-05-10T03:20:18.118Z,169.20
2023-05-10T03:21:18.001Z,168.78
2023-05-10T03:22:18.072Z,170.09
2023-05-10T03:23:18.053Z,168.66
2023-05-10T03:24:18.118Z,169.67
2023-05-10T03:25:18.118Z,168.65
2023-05-10T03:26:18.184Z,170.65
2023-05-10T03:27:18.289Z,169.16
2023-05-10T03:28:18.313Z,170.76
2023-05-10T03:29:18.295Z,170.26
2023-05-10T03:30:18.680Z,169.12
2023-05-10T03:31:18.405Z,169.99
2023-05-10T03:32:18.384Z,169.88
2023-05-10T03:33:18.412Z,169.05
2023-05-10T03:34:18.455Z,169.37
2023-05-10T03:35:18.546Z,168.92
2023-05-10T03:36:18.542Z,168.37
2023-05-10T03:37:18.558Z,167.15
2023-05-10T03:38:18.628Z,171.94
2023-05-10T03:39:18.701Z,171.34
2023-05-10T03:40:18.987Z,170.08
2023-05-10T03:41:18.784Z,170.63
2023-05-10T03:42:18.811Z,170.95
2023-05-10T03:43:18.865Z,169.41
2023-05-10T03:44:18.871Z,169.02
2023-05-10T03:45:18.908Z,171.60
2023-05-10T03:46:19.040Z,171.18
2023-05-10T03:47:19.063Z,169.91
2023-05-10T03:48:19.111Z,170.08
2023-05-10T03:49:19.116Z,170.12
2023-05-10T03:50:19.391Z,170.67
2023-05-10T03:51:19.181Z,170.56
2023-05-10T03:52:19.301Z,171.99
2023-05-10T03:53:19.300Z,172.11
2023-05-10T03:54:19.330Z,170.01
2023-05-10T03:55:19.352Z,169.55
2023-05-10T03:56:19.468Z,172.24
2023-05-10T03:57:19.482Z,169.06
2023-05-10T03:58:19.510Z,170.14
2023-05-10T03:59:19.633Z,169.73
2023-05-10T04:00:19.746Z,166.34
2023-05-10T04:01:19.651Z,171.73
2023-05-10T04:02:19.668Z,170.57
2023-05-10T04:03:19.799Z,172.13
2023-05-10T04:04:19.992Z,170.31
2023-05-10T04:05:19.820Z,170.22
2023-05-10T04:06:19.912Z,171.90
2023-05-10T04:07:19.906Z,170.65
2023-05-10T04:08:19.990Z,170.00
2023-05-10T04:09:20.121Z,174.31
2023-05-10T04:10:20.192Z,171.61
2023-05-10T04:11:20.278Z,171.51
2023-05-10T04:12:20.252Z,170.87
2023-05-10T04:13:20.421Z,172.64
2023-05-10T04:14:20.355Z,172.82
2023-05-10T04:15:20.420Z,172.31
2023-05-10T04:16:20.601Z,170.54
2023-05-10T04:17:20.617Z,172.03
2023-05-10T04:18:20.639Z,170.28
2023-05-10T04:19:21.205Z,171.02
2023-05-10T04:20:20.779Z,171.44
2023-05-10T04:21:21.346Z,170.91
2023-05-10T04:22:20.896Z,171.11
2023-05-10T04:23:22.007Z,169.03
2023-05-10T04:24:20.993Z,167.15
2023-05-10T04:25:21.053Z,168.93
2023-05-10T04:26:21.128Z,169.31
2023-05-10T04:27:21.168Z,165.25
2023-05-10T04:28:21.223Z,167.55
2023-05-10T04:29:21.433Z,167.67
2023-05-10T04:30:21.391Z,166.73
2023-05-10T04:31:21.548Z,164.45
2023-05-10T04:32:21.713Z,165.66
2023-05-10T04:33:21.523Z,164.60
2023-05-10T04:34:21.640Z,166.09
2023-05-10T04:35:21.794Z,168.97
2023-05-10T04:36:21.742Z,165.94
2023-05-10T04:37:21.831Z,167.35
2023-05-10T04:38:21.835Z,166.68
2023-05-10T04:39:21.913Z,165.43
2023-05-10T04:40:21.982Z,166.89
2023-05-10T04:41:22.021Z,163.53
2023-05-10T04:42:22.106Z,167.39
2023-05-10T04:43:22.142Z,165.43
2023-05-10T04:44:22.209Z,166.88
2023-05-10T04:45:22.341Z,167.17
2023-05-10T04:46:22.329Z,164.17
2023-05-10T04:47:22.448Z,164.22
2023-05-10T04:48:22.488Z,163.73
2023-05-10T04:49:22.547Z,164.26
2023-05-10T04:50:22.594Z,164.68
2023-05-10T04:51:22.659Z,164.54
2023-05-10T04:52:22.717Z,165.03
2023-05-10T04:53:22.765Z,163.38
2023-05-10T04:54:22.836Z,163.30
2023-05-10T04:55:22.874Z,162.92
2023-05-10T04:56:23.006Z,164.57
2023-05-10T04:57:23.061Z,166.63
2023-05-10T04:58:23.086Z,139.00
2023-05-10T04:59:23.067Z,133.81
2023-05-10T05:00:23.077Z,119.01
2023-05-10T05:01:23.099Z,109.81
2023-05-10T05:02:23.189Z,99.02
2023-05-10T05:03:23.343Z,99.83
2023-05-10T05:04:23.205Z,97.88
2023-05-10T05:05:23.279Z,96.86
2023-05-10T05:06:23.326Z,93.01
2023-05-10T05:07:23.395Z,89.39
2023-05-10T05:08:23.448Z,88.23
2023-05-10T05:09:23.474Z,87.25
2023-05-10T05:10:23.487Z,84.62
2023-05-10T05:11:23.559Z,83.32
2023-05-10T05:12:23.642Z,77.11
2023-05-10T05:13:23.799Z,74.42
2023-05-10T05:14:23.724Z,75.64
2023-05-10T05:15:23.798Z,79.37
2023-05-10T05:16:23.868Z,82.00
2023-05-10T05:17:23.921Z,77.43
2023-05-10T05:18:23.978Z,73.79
2023-05-10T05:19:24.028Z,70.06
2023-05-10T05:20:23.988Z,80.07
2023-05-10T05:21:24.005Z,84.95
2023-05-10T05:22:24.051Z,85.10
2023-05-10T05:23:24.057Z,74.84
2023-05-10T05:24:24.135Z,66.64
2023-05-10T05:25:24.179Z,67.03
2023-05-10T05:26:24.226Z,52.47
2023-05-10T05:27:24.242Z,45.80
2023-05-10T05:28:24.235Z,31.99
2023-05-10T05:29:24.274Z,34.10
2023-05-10T05:30:24.310Z,35.75
2023-05-10T05:31:24.302Z,44.48
2023-05-10T05:32:24.417Z,55.02
2023-05-10T05:33:24.382Z,74.72
2023-05-10T05:34:24.444Z,77.29
2023-05-10T05:35:24.450Z,71.26
2023-05-10T05:36:24.505Z,54.94
2023-05-10T05:37:24.591Z,42.29
2023-05-10T05:38:24.563Z,50.76
2023-05-10T05:39:24.625Z,63.12
2023-05-10T05:40:24.779Z,44.62
2023-05-10T05:41:24.702Z,26.91
2023-05-10T05:42:24.758Z,25.00
2023-05-10T05:43:24.724Z,41.88
2023-05-10T05:44:24.729Z,29.09
2023-05-10T05:45:24.769Z,24.84
2023-05-10T05:46:24.812Z,40.44
2023-05-10T05:47:24.882Z,62.83
2023-05-10T05:48:24.904Z,68.04
2023-05-10T05:49:24.885Z,74.62
2023-05-10T05:50:25.280Z,92.03
2023-05-10T05:51:25.028Z,94.75
2023-05-10T05:52:25.025Z,102.37
2023-05-10T05:53:25.288Z,109.66
2023-05-10T05:54:25.135Z,111.40
2023-05-10T05:55:25.102Z,123.18
2023-05-10T05:56:25.128Z,129.28
2023-05-10T05:57:25.102Z,136.03
2023-05-10T05:58:25.112Z,140.50
2023-05-10T05:59:25.550Z,149.62
2023-05-10T06:00:25.246Z,152.12
2023-05-10T06:01:25.759Z,153.97
2023-05-10T06:02:25.497Z,159.44
2023-05-10T06:03:25.499Z,160.12
2023-05-10T06:04:25.850Z,169.37
2023-05-10T06:05:25.471Z,179.10
2023-05-10T06:06:27.245Z,187.25
2023-05-10T06:07:25.808Z,195.04
2023-05-10T06:08:25.486Z,200.10
2023-05-10T06:09:25.797Z,199.94
2023-05-10T06:10:25.463Z,205.69
2023-05-10T06:11:26.287Z,215.21
2023-05-10T06:12:25.489Z,218.82
2023-05-10T06:13:25.578Z,222.97
2023-05-10T06:14:25.496Z,225.79
2023-05-10T06:15:25.537Z,232.14
2023-05-10T06:16:25.662Z,238.62
2023-05-10T06:17:25.680Z,249.23
2023-05-10T06:18:25.688Z,247.15
2023-05-10T06:19:25.782Z,247.29
2023-05-10T06:20:25.834Z,250.00
2023-05-10T06:21:25.888Z,250.00
2023-05-10T06:22:25.946Z,247.65
2023-05-10T06:23:25.998Z,249.80
2023-05-10T06:24:26.066Z,248.46
2023-05-10T06:25:26.151Z,248.80
2023-05-10T06:26:26.122Z,249.14
2023-05-10T06:27:26.186Z,249.23
2023-05-10T06:28:26.300Z,248.45
2023-05-10T06:29:26.276Z,245.68
2023-05-10T06:30:26.339Z,248.08
2023-05-10T06:31:26.419Z,250.20
2023-05-10T06:32:26.432Z,248.66
2023-05-10T06:33:26.440Z,250.00
2023-05-10T06:34:26.502Z,250.00
2023-05-10T06:35:26.515Z,249.23
2023-05-10T06:36:26.518Z,238.36
2023-05-10T06:37:26.625Z,222.11
2023-05-10T06:38:27.294Z,224.60
2023-05-10T06:39:26.622Z,193.36
2023-05-10T06:40:26.906Z,161.72
2023-05-10T06:41:26.691Z,172.25
2023-05-10T06:42:26.811Z,175.72
2023-05-10T06:43:26.708Z,170.97
2023-05-10T06:44:26.660Z,173.89
2023-05-10T06:45:26.674Z,174.99
2023-05-10T06:46:26.691Z,174.07
2023-05-10T06:47:26.707Z,171.93
2023-05-10T06:48:26.696Z,174.20
2023-05-10T06:49:26.799Z,171.74
2023-05-10T06:50:26.664Z,170.37
2023-05-10T06:51:26.674Z,171.27
2023-05-10T06:52:26.731Z,171.73
2023-05-10T06:53:26.787Z,174.53
2023-05-10T06:54:26.843Z,171.38
2023-05-10T06:55:27.302Z,171.55
2023-05-10T06:56:26.950Z,167.31
2023-05-10T06:57:31.585Z,167.24
2023-05-10T06:58:27.002Z,167.41
2023-05-10T06:59:26.987Z,167.32
2023-05-10T07:00:27.024Z,165.74
2023-05-10T07:01:27.060Z,169.39
2023-05-10T07:02:27.435Z,170.26
2023-05-10T07:03:27.372Z,172.76
2023-05-10T07:04:27.318Z,168.40
2023-05-10T07:05:27.361Z,165.43
2023-05-10T07:06:33.372Z,165.66
2023-05-10T07:07:28.113Z,165.94
2023-05-10T07:08:27.023Z,165.68
2023-05-10T07:09:27.286Z,164.51
2023-05-10T07:10:27.305Z,155.99
2023-05-10T07:11:27.005Z,158.37
2023-05-10T07:12:27.378Z,165.50
2023-05-10T07:13:27.031Z,171.15
2023-05-10T07:14:27.097Z,176.28
2023-05-10T07:15:27.288Z,180.20
2023-05-10T07:16:27.286Z,182.22
2023-05-10T07:17:27.278Z,186.22
2023-05-10T07:18:27.388Z,189.63
2023-05-10T07:19:28.279Z,191.54
2023-05-10T07:20:27.318Z,191.46
2023-05-10T07:21:27.440Z,195.03
2023-05-10T07:22:27.793Z,201.09
2023-05-10T07:23:27.404Z,203.56
2023-05-10T07:24:27.402Z,201.81
2023-05-10T07:25:27.397Z,206.78
2023-05-10T07:26:27.411Z,211.97
2023-05-10T07:27:27.438Z,216.46
2023-05-10T07:28:27.485Z,217.19
2023-05-10T07:29:27.513Z,219.20
2023-05-10T07:30:27.505Z,217.74
2023-05-10T07:31:27.499Z,211.47
2023-05-10T07:32:27.626Z,194.77
2023-05-10T07:33:27.520Z,170.57
2023-05-10T07:34:27.638Z,159.21
2023-05-10T07:35:27.825Z,148.24
2023-05-10T07:36:27.687Z,134.74
2023-05-10T07:37:27.688Z,134.69
2023-05-10T07:38:27.695Z,130.38
2023-05-10T07:39:28.345Z,132.47
2023-05-10T07:40:27.708Z,141.62
2023-05-10T07:41:27.823Z,140.05
2023-05-10T07:42:28.341Z,146.32
2023-05-10T07:43:27.791Z,150.18
2023-05-10T07:44:27.811Z,150.43
2023-05-10T07:45:27.769Z,153.40
2023-05-10T07:46:28.061Z,150.56
2023-05-10T07:47:27.827Z,146.77
2023-05-10T07:48:27.860Z,144.89
2023-05-10T07:49:28.849Z,148.57
2023-05-10T07:50:27.977Z,141.99
2023-05-10T07:51:28.051Z,143.79
2023-05-10T07:52:28.099Z,135.95
2023-05-10T07:53:28.165Z,135.42
2023-05-10T07:54:28.298Z,141.51
2023-05-10T07:55:28.288Z,137.79
2023-05-10T07:56:28.387Z,134.99
2023-05-10T07:57:28.348Z,141.04
2023-05-10T07:58:28.502Z,142.33
2023-05-10T07:59:28.531Z,144.68
2023-05-10T08:00:28.571Z,144.56
2023-05-10T08:01:28.711Z,144.48
2023-05-10T08:02:28.713Z,146.55
2023-05-10T08:03:29.005Z,146.54
2023-05-10T08:04:28.757Z,151.74
2023-05-10T08:05:28.780Z,150.00
2023-05-10T08:06:28.800Z,150.66
2023-05-10T08:07:28.838Z,152.29
2023-05-10T08:08:28.876Z,154.20
2023-05-10T08:09:28.894Z,155.86
2023-05-10T08:10:28.930Z,156.61
2023-05-10T08:11:28.950Z,154.46
2023-05-10T08:12:29.339Z,164.07
2023-05-10T08:13:29.845Z,165.26
2023-05-10T08:14:29.075Z,162.18
2023-05-10T08:15:29.020Z,164.70
2023-05-10T08:16:29.100Z,169.55
2023-05-10T08:17:29.158Z,182.21
2023-05-10T08:18:29.822Z,190.29
2023-05-10T08:19:29.313Z,184.38
2023-05-10T08:20:29.235Z,180.79
2023-05-10T08:21:29.828Z,184.00
2023-05-10T08:22:29.175Z,178.05
2023-05-10T08:23:29.233Z,182.75
2023-05-10T08:24:29.150Z,189.80
2023-05-10T08:25:29.192Z,182.22
2023-05-10T08:26:29.235Z,179.62
2023-05-10T08:27:29.257Z,161.43
2023-05-10T08:28:29.334Z,144.90
2023-05-10T08:29:32.796Z,144.11
2023-05-10T08:30:30.299Z,144.36
2023-05-10T08:31:29.330Z,135.85
2023-05-10T08:32:29.390Z,125.67
2023-05-10T08:33:29.309Z,115.76
2023-05-10T08:34:29.465Z,105.87
2023-05-10T08:35:29.322Z,101.21
2023-05-10T08:36:29.318Z,110.68
2023-05-10T08:37:29.374Z,116.69
2023-05-10T08:38:29.220Z,120.22
2023-05-10T08:39:30.706Z,124.03
2023-05-10T08:40:29.235Z,132.15
2023-05-10T08:41:29.196Z,132.40
2023-05-10T08:42:29.209Z,136.03
2023-05-10T08:43:29.213Z,143.12
2023-05-10T08:44:29.264Z,140.90
2023-05-10T08:45:29.318Z,153.75
2023-05-10T08:46:29.384Z,162.38
2023-05-10T08:47:29.415Z,159.70
2023-05-10T08:48:29.381Z,160.12
2023-05-10T08:49:29.375Z,158.35
2023-05-10T08:50:29.876Z,162.42
2023-05-10T08:51:29.410Z,166.18
2023-05-10T08:52:29.501Z,171.11
2023-05-10T08:53:29.541Z,174.97
2023-05-10T08:54:29.564Z,178.99
2023-05-10T08:55:29.676Z,183.85
2023-05-10T08:56:29.681Z,186.31
2023-05-10T08:57:29.843Z,188.83
2023-05-10T08:58:29.844Z,194.83
2023-05-10T08:59:29.848Z,197.78
2023-05-10T09:00:29.741Z,202.84
2023-05-10T09:01:29.844Z,202.37
2023-05-10T09:02:29.795Z,207.66
2023-05-10T09:03:29.781Z,209.16
2023-05-10T09:04:29.881Z,214.08
2023-05-10T09:05:29.801Z,217.58
2023-05-10T09:06:29.777Z,223.07
2023-05-10T09:07:29.814Z,228.18
2023-05-10T09:08:29.810Z,232.53
2023-05-10T09:09:29.824Z,240.47
2023-05-10T09:10:29.749Z,244.52
2023-05-10T09:11:29.768Z,245.01
2023-05-10T09:12:29.769Z,247.42
2023-05-10T09:13:29.772Z,249.29
2023-05-10T09:14:29.794Z,249.56
2023-05-10T09:15:29.838Z,249.67
2023-05-10T09:16:29.977Z,250.00
2023-05-10T09:17:29.921Z,244.55
2023-05-10T09:18:29.897Z,230.61
2023-05-10T09:19:29.923Z,206.31
2023-05-10T09:20:30.014Z,196.71
2023-05-10T09:21:30.335Z,180.84
2023-05-10T09:22:29.909Z,171.03
2023-05-10T09:23:29.861Z,167.61
2023-05-10T09:24:29.905Z,160.62
2023-05-10T09:25:29.991Z,154.83
2023-05-10T09:26:30.373Z,149.68
2023-05-10T09:27:29.978Z,169.39
2023-05-10T09:28:30.366Z,188.02
2023-05-10T09:29:29.990Z,190.43
2023-05-10T09:30:30.010Z,198.24
2023-05-10T09:31:30.909Z,200.45
2023-05-10T09:32:30.116Z,204.26
2023-05-10T09:33:30.387Z,192.89
2023-05-10T09:34:31.062Z,160.06
2023-05-10T09:35:30.199Z,122.51
2023-05-10T09:36:30.855Z,112.91
2023-05-10T09:37:30.207Z,108.90
2023-05-10T09:38:30.369Z,119.30
2023-05-10T09:39:30.869Z,130.18
2023-05-10T09:40:30.476Z,133.62
2023-05-10T09:41:30.373Z,139.74
2023-05-10T09:42:30.447Z,143.51
2023-05-10T09:43:30.856Z,145.52
2023-05-10T09:44:30.492Z,149.83
2023-05-10T09:45:30.623Z,154.01
2023-05-10T09:46:30.662Z,157.07
2023-05-10T09:47:30.680Z,159.30
2023-05-10T09:48:30.999Z,159.52
2023-05-10T09:49:30.601Z,164.31
2023-05-10T09:50:30.639Z,166.71
2023-05-10T09:51:30.626Z,169.60
2023-05-10T09:52:30.611Z,172.44
2023-05-10T09:53:30.617Z,172.21
2023-05-10T09:54:30.636Z,176.12
2023-05-10T09:55:30.626Z,180.14
2023-05-10T09:56:30.634Z,185.73
2023-05-10T09:57:32.367Z,189.51
2023-05-10T09:58:30.663Z,195.92
2023-05-10T09:59:30.680Z,197.43
2023-05-10T10:00:30.611Z,198.72
2023-05-10T10:01:30.710Z,203.35
2023-05-10T10:02:31.417Z,207.00
2023-05-10T10:03:30.584Z,208.40
2023-05-10T10:04:30.593Z,211.03
2023-05-10T10:05:30.606Z,210.41
2023-05-10T10:06:30.858Z,215.23
2023-05-10T10:07:30.779Z,217.48
2023-05-10T10:08:30.634Z,218.94
2023-05-10T10:09:30.564Z,220.38
2023-05-10T10:10:30.600Z,224.49
2023-05-10T10:11:30.586Z,229.01
2023-05-10T10:12:30.576Z,228.84
2023-05-10T10:13:30.899Z,231.13
2023-05-10T10:14:30.542Z,235.97
2023-05-10T10:15:30.873Z,239.01
2023-05-10T10:16:30.588Z,235.85
2023-05-10T10:17:30.708Z,242.35
2023-05-10T10:18:31.425Z,242.67
2023-05-10T10:19:31.377Z,247.13
2023-05-10T10:20:30.464Z,248.20
2023-05-10T10:21:30.483Z,248.22
2023-05-10T10:22:30.871Z,250.00
2023-05-10T10:23:31.409Z,249.43
2023-05-10T10:24:31.502Z,247.87
2023-05-10T10:25:30.479Z,246.63
2023-05-10T10:26:30.893Z,247.45
2023-05-10T10:27:30.487Z,245.51
2023-05-10T10:28:31.351Z,246.65
2023-05-10T10:29:30.393Z,241.22
2023-05-10T10:30:30.425Z,216.54
2023-05-10T10:31:30.540Z,208.35
2023-05-10T10:32:30.419Z,166.64
2023-05-10T10:33:30.504Z,169.44
2023-05-10T10:34:30.380Z,181.97
2023-05-10T10:35:30.923Z,189.14
2023-05-10T10:36:30.414Z,195.93
2023-05-10T10:37:30.450Z,194.65
2023-05-10T10:38:30.565Z,197.82
2023-05-10T10:39:30.569Z,196.96
2023-05-10T10:40:32.634Z,201.32
2023-05-10T10:41:30.899Z,201.51
2023-05-10T10:42:30.907Z,202.62
2023-05-10T10:43:30.625Z,204.75
2023-05-10T10:44:30.920Z,210.22
2023-05-10T10:45:30.570Z,215.00
2023-05-10T10:46:30.553Z,219.39
2023-05-10T10:47:30.667Z,222.80
2023-05-10T10:48:30.610Z,225.41
2023-05-10T10:49:30.538Z,224.70
2023-05-10T10:50:30.570Z,229.37
2023-05-10T10:51:30.515Z,233.19
2023-05-10T10:52:30.517Z,231.83
2023-05-10T10:53:30.622Z,237.55
2023-05-10T10:54:30.486Z,238.63
2023-05-10T10:55:30.558Z,242.80
2023-05-10T10:56:30.497Z,240.86
2023-05-10T10:57:30.490Z,243.18
2023-05-10T10:58:30.514Z,244.21
2023-05-10T10:59:30.472Z,248.55
2023-05-10T11:00:30.486Z,249.75
2023-05-10T11:01:30.554Z,247.45
2023-05-10T11:02:31.370Z,250.00
2023-05-10T11:03:30.530Z,248.59
2023-05-10T11:04:30.452Z,248.05
2023-05-10T11:05:32.459Z,250.00
2023-05-10T11:06:30.424Z,247.28
2023-05-10T11:07:30.420Z,247.13
2023-05-10T11:08:30.936Z,249.46
2023-05-10T11:09:30.430Z,250.00
2023-05-10T11:10:30.440Z,248.50
2023-05-10T11:11:30.902Z,248.73
2023-05-10T11:12:30.392Z,250.00
2023-05-10T11:13:30.409Z,248.87
2023-05-10T11:14:30.391Z,250.00
2023-05-10T11:15:30.429Z,250.00
2023-05-10T11:16:30.389Z,250.00
2023-05-10T11:17:30.514Z,248.72
2023-05-10T11:18:30.446Z,246.39
2023-05-10T11:19:30.355Z,248.36
2023-05-10T11:20:30.328Z,233.24
2023-05-10T11:21:30.353Z,205.49
2023-05-10T11:22:30.314Z,189.40
2023-05-10T11:23:30.317Z,173.71
2023-05-10T11:24:30.355Z,140.31
2023-05-10T11:25:30.340Z,119.93
2023-05-10T11:26:30.261Z,101.76
2023-05-10T11:27:30.333Z,83.25
2023-05-10T11:28:30.293Z,74.66
2023-05-10T11:29:30.316Z,63.99
2023-05-10T11:30:30.330Z,57.28
2023-05-10T11:31:30.514Z,47.01
2023-05-10T11:32:30.315Z,30.04
2023-05-10T11:33:30.314Z,24.63
2023-05-10T11:34:30.348Z,17.48
2023-05-10T11:35:30.336Z,25.04
2023-05-10T11:36:30.350Z,24.78
2023-05-10T11:37:30.409Z,25.39
2023-05-10T11:38:30.458Z,26.40
2023-05-10T11:39:30.529Z,26.84
2023-05-10T11:40:30.595Z,27.85
2023-05-10T11:41:30.636Z,27.71
2023-05-10T11:42:30.690Z,25.00
2023-05-10T11:43:30.766Z,25.37
2023-05-10T11:44:30.814Z,25.00
2023-05-10T11:45:30.884Z,25.00
2023-05-10T11:46:30.961Z,25.02
2023-05-10T11:47:31.017Z,28.35
2023-05-10T11:48:31.068Z,25.00
2023-05-10T11:49:31.170Z,25.00
2023-05-10T11:50:31.170Z,24.56
2023-05-10T11:51:31.091Z,25.00
2023-05-10T11:52:31.129Z,24.81
2023-05-10T11:53:31.141Z,25.00
2023-05-10T11:54:31.151Z,26.07
2023-05-10T11:55:31.093Z,25.10
2023-05-10T11:56:31.124Z,25.00
2023-05-10T11:57:31.117Z,26.90
2023-05-10T11:58:31.168Z,27.46
2023-05-10T11:59:31.194Z,25.00
2023-05-10T12:00:31.191Z,27.38
2023-05-10T12:01:31.235Z,31.21
2023-05-10T12:02:31.296Z,39.79
2023-05-10T12:03:31.634Z,42.42
2023-05-10T12:04:31.377Z,54.84
2023-05-10T12:05:31.374Z,65.80
2023-05-10T12:06:31.394Z,76.08
2023-05-10T12:07:31.477Z,84.87
2023-05-10T12:08:31.402Z,95.44
2023-05-10T12:09:43.066Z,91.95
2023-05-10T12:10:32.432Z,92.30
2023-05-10T12:11:31.364Z,94.10
2023-05-10T12:12:31.401Z,96.49
2023-05-10T12:13:31.383Z,104.21
2023-05-10T12:14:31.325Z,117.79
2023-05-10T12:15:31.409Z,125.14
2023-05-10T12:16:31.412Z,131.03
2023-05-10T12:17:31.376Z,135.84
2023-05-10T12:18:31.346Z,139.55
2023-05-10T12:19:31.303Z,145.31
2023-05-10T12:20:31.319Z,150.93
2023-05-10T12:21:31.360Z,160.18
2023-05-10T12:22:31.317Z,164.59
2023-05-10T12:23:31.296Z,168.82
2023-05-10T12:24:31.316Z,173.19
2023-05-10T12:25:31.355Z,176.47
2023-05-10T12:26:31.385Z,180.34
2023-05-10T12:27:31.403Z,185.06
2023-05-10T12:28:31.481Z,190.16
2023-05-10T12:29:31.501Z,193.96
2023-05-10T12:30:31.675Z,199.55
2023-05-10T12:31:31.690Z,202.18